PWSweather.com
Personal Weather Stations
Station Observations
BNUMANCIA
BarcelonaES 08029

BarcelonaES 08029

Lat: 41.3855863, Lon: 2.1367624

Elevation: 46

Station Type: WMR180

High Low Average
Temperature 72.0°F22.2°F 57.2°F14.0°F 62.4°F16.9°F
Dew Point 54.9°F12.7°F 47.6°F8.7°F 50.9°F10.5°F
Winds 8.2 mph 13.2 mph Calm Calm 1.2 mph 1.9 mph
Wind Gusts 9.4 mph15.1 mph -- 2.1 mph3.4 mph
Humidity 73% 49% 66%
Pressure 30.12 in1020.00 in 30.09 in1019.00 in -
Precipitation 0.00 in0.00 in - -
Hour Temp Dew Point Humidity Winds Wind Gusts Pressure Precip Precip Rate Daily Precip Total
12:04 AM 59.2°F15.1°C 48.6°F9.2°C 68% 4.3 mph NNE6.9 kmh NNE 4.7 mph7.6 kmh 30.09 in1019.0 mb 0.00 in0.0 mm 0.00 in/hr0.0 mm/hr 0.00 in0.0 mm
12:09 AM 59.2°F15.1°C 48.6°F9.2°C 68% 3.9 mph NNE6.3 kmh NNE 4.3 mph6.9 kmh 30.09 in1019.0 mb 0.00 in0.0 mm 0.00 in/hr0.0 mm/hr 0.00 in0.0 mm
12:14 AM 59.0°F15.0°C 48.5°F9.2°C 68% 4.7 mph NNE7.6 kmh NNE 5.1 mph8.2 kmh 30.09 in1019.0 mb 0.00 in0.0 mm 0.00 in/hr0.0 mm/hr 0.00 in0.0 mm
12:19 AM 59.0°F15.0°C 48.5°F9.2°C 68% 4.7 mph NNE7.6 kmh NNE 5.1 mph8.2 kmh 30.09 in1019.0 mb 0.00 in0.0 mm 0.00 in/hr0.0 mm/hr 0.00 in0.0 mm
12:25 AM 59.2°F15.1°C 48.6°F9.2°C 68% Calm Calm -- 30.09 in1019.0 mb 0.00 in0.0 mm 0.00 in/hr0.0 mm/hr 0.00 in0.0 mm
12:30 AM 59.2°F15.1°C 48.6°F9.2°C 68% Calm Calm -- 30.09 in1019.0 mb 0.00 in0.0 mm 0.00 in/hr0.0 mm/hr 0.00 in0.0 mm
12:34 AM 59.2°F15.1°C 48.6°F9.2°C 68% 2.0 mph NNE3.2 kmh NNE 3.8 mph6.1 kmh 30.09 in1019.0 mb 0.00 in0.0 mm 0.00 in/hr0.0 mm/hr 0.00 in0.0 mm
12:39 AM 59.2°F15.1°C 48.6°F9.2°C 68% Calm Calm -- 30.09 in1019.0 mb 0.00 in0.0 mm 0.00 in/hr0.0 mm/hr 0.00 in0.0 mm
12:44 AM 59.4°F15.2°C 48.8°F9.3°C 68% 2.0 mph NNE3.2 kmh NNE 3.0 mph4.8 kmh 30.09 in1019.0 mb 0.00 in0.0 mm 0.00 in/hr0.0 mm/hr 0.00 in0.0 mm
12:49 AM 59.2°F15.1°C 48.6°F9.2°C 68% Calm Calm 2.1 mph3.4 kmh 30.09 in1019.0 mb 0.00 in0.0 mm 0.00 in/hr0.0 mm/hr 0.00 in0.0 mm
12:54 AM 59.2°F15.1°C 49.0°F9.4°C 69% Calm Calm 3.0 mph4.8 kmh 30.09 in1019.0 mb 0.00 in0.0 mm 0.00 in/hr0.0 mm/hr 0.00 in0.0 mm
12:59 AM 59.2°F15.1°C 49.0°F9.4°C 69% Calm Calm 3.0 mph4.8 kmh 30.09 in1019.0 mb 0.00 in0.0 mm 0.00 in/hr0.0 mm/hr 0.00 in0.0 mm
01:04 AM 59.0°F15.0°C 48.9°F9.4°C 69% Calm Calm -- 30.09 in1019.0 mb 0.00 in0.0 mm 0.00 in/hr0.0 mm/hr 0.00 in0.0 mm
01:09 AM 59.0°F15.0°C 48.9°F9.4°C 69% Calm Calm -- 30.09 in1019.0 mb 0.00 in0.0 mm 0.00 in/hr0.0 mm/hr 0.00 in0.0 mm
01:14 AM 58.8°F14.9°C 48.7°F9.3°C 69% Calm Calm -- 30.09 in1019.0 mb 0.00 in0.0 mm 0.00 in/hr0.0 mm/hr 0.00 in0.0 mm
01:20 AM 58.6°F14.8°C 48.5°F9.2°C 69% Calm Calm -- 30.09 in1019.0 mb 0.00 in0.0 mm 0.00 in/hr0.0 mm/hr 0.00 in0.0 mm
01:25 AM 58.6°F14.8°C 48.5°F9.2°C 69% Calm Calm 2.6 mph4.2 kmh 30.09 in1019.0 mb 0.00 in0.0 mm 0.00 in/hr0.0 mm/hr 0.00 in0.0 mm
01:30 AM 58.6°F14.8°C 48.9°F9.4°C 70% Calm Calm 1.7 mph2.7 kmh 30.09 in1019.0 mb 0.00 in0.0 mm 0.00 in/hr0.0 mm/hr 0.00 in0.0 mm
01:34 AM 58.5°F14.7°C 48.7°F9.3°C 70% 5.5 mph NNE8.9 kmh NNE 6.4 mph10.3 kmh 30.09 in1019.0 mb 0.00 in0.0 mm 0.00 in/hr0.0 mm/hr 0.00 in0.0 mm
01:39 AM 58.5°F14.7°C 49.1°F9.5°C 71% 2.3 mph NNE3.7 kmh NNE 4.3 mph6.9 kmh 30.09 in1019.0 mb 0.00 in0.0 mm 0.00 in/hr0.0 mm/hr 0.00 in0.0 mm
01:44 AM 58.5°F14.7°C 49.1°F9.5°C 71% 5.1 mph NNE8.2 kmh NNE 5.5 mph8.9 kmh 30.09 in1019.0 mb 0.00 in0.0 mm 0.00 in/hr0.0 mm/hr 0.00 in0.0 mm
01:49 AM 58.3°F14.6°C 48.9°F9.4°C 71% 4.7 mph NNE7.6 kmh NNE 6.0 mph9.7 kmh 30.09 in1019.0 mb 0.00 in0.0 mm 0.00 in/hr0.0 mm/hr 0.00 in0.0 mm
01:54 AM 58.3°F14.6°C 48.9°F9.4°C 71% Calm Calm -- 30.09 in1019.0 mb 0.00 in0.0 mm 0.00 in/hr0.0 mm/hr 0.00 in0.0 mm
01:59 AM 58.1°F14.5°C 48.8°F9.3°C 71% Calm Calm -- 30.09 in1019.0 mb 0.00 in0.0 mm 0.00 in/hr0.0 mm/hr 0.00 in0.0 mm
02:04 AM 58.1°F14.5°C 48.8°F9.3°C 71% Calm Calm -- 30.09 in1019.0 mb 0.00 in0.0 mm 0.00 in/hr0.0 mm/hr 0.00 in0.0 mm
02:09 AM 58.1°F14.5°C 48.8°F9.3°C 71% Calm Calm -- 30.09 in1019.0 mb 0.00 in0.0 mm 0.00 in/hr0.0 mm/hr 0.00 in0.0 mm
02:14 AM 58.1°F14.5°C 48.8°F9.3°C 71% Calm Calm 3.0 mph4.8 kmh 30.09 in1019.0 mb 0.00 in0.0 mm 0.00 in/hr0.0 mm/hr 0.00 in0.0 mm
02:20 AM 58.1°F14.5°C 48.8°F9.3°C 71% Calm Calm -- 30.09 in1019.0 mb 0.00 in0.0 mm 0.00 in/hr0.0 mm/hr 0.00 in0.0 mm
02:25 AM 58.1°F14.5°C 48.8°F9.3°C 71% Calm Calm -- 30.09 in1019.0 mb 0.00 in0.0 mm 0.00 in/hr0.0 mm/hr 0.00 in0.0 mm
02:30 AM 58.1°F14.5°C 48.8°F9.3°C 71% 5.9 mph 9.5 kmh 6.4 mph10.3 kmh 30.09 in1019.0 mb 0.00 in0.0 mm 0.00 in/hr0.0 mm/hr 0.00 in0.0 mm
02:36 AM 58.3°F14.6°C 48.9°F9.4°C 71% Calm Calm 2.6 mph4.2 kmh 30.09 in1019.0 mb 0.00 in0.0 mm 0.00 in/hr0.0 mm/hr 0.00 in0.0 mm
02:39 AM 58.3°F14.6°C 48.9°F9.4°C 71% Calm Calm -- 30.09 in1019.0 mb 0.00 in0.0 mm 0.00 in/hr0.0 mm/hr 0.00 in0.0 mm
02:44 AM 58.3°F14.6°C 48.9°F9.4°C 71% Calm Calm -- 30.09 in1019.0 mb 0.00 in0.0 mm 0.00 in/hr0.0 mm/hr 0.00 in0.0 mm
02:49 AM 58.5°F14.7°C 49.1°F9.5°C 71% 2.0 mph 3.2 kmh 2.1 mph3.4 kmh 30.09 in1019.0 mb 0.00 in0.0 mm 0.00 in/hr0.0 mm/hr 0.00 in0.0 mm
02:54 AM 58.5°F14.7°C 49.1°F9.5°C 71% Calm Calm 4.7 mph7.6 kmh 30.09 in1019.0 mb 0.00 in0.0 mm 0.00 in/hr0.0 mm/hr 0.00 in0.0 mm
02:59 AM 58.5°F14.7°C 49.1°F9.5°C 71% 3.5 mph NNE5.6 kmh NNE 4.3 mph6.9 kmh 30.09 in1019.0 mb 0.00 in0.0 mm 0.00 in/hr0.0 mm/hr 0.00 in0.0 mm
03:04 AM 58.6°F14.8°C 49.3°F9.6°C 71% Calm Calm -- 30.09 in1019.0 mb 0.00 in0.0 mm 0.00 in/hr0.0 mm/hr 0.00 in0.0 mm
03:09 AM 58.6°F14.8°C 49.3°F9.6°C 71% Calm Calm -- 30.09 in1019.0 mb 0.00 in0.0 mm 0.00 in/hr0.0 mm/hr 0.00 in0.0 mm
03:14 AM 58.6°F14.8°C 48.9°F9.4°C 70% Calm Calm -- 30.09 in1019.0 mb 0.00 in0.0 mm 0.00 in/hr0.0 mm/hr 0.00 in0.0 mm
03:20 AM 58.6°F14.8°C 48.9°F9.4°C 70% 4.3 mph 6.9 kmh 5.1 mph8.2 kmh 30.09 in1019.0 mb 0.00 in0.0 mm 0.00 in/hr0.0 mm/hr 0.00 in0.0 mm
03:25 AM 58.8°F14.9°C 49.1°F9.5°C 70% Calm Calm -- 30.09 in1019.0 mb 0.00 in0.0 mm 0.00 in/hr0.0 mm/hr 0.00 in0.0 mm
03:30 AM 58.8°F14.9°C 49.1°F9.5°C 70% Calm Calm -- 30.09 in1019.0 mb 0.00 in0.0 mm 0.00 in/hr0.0 mm/hr 0.00 in0.0 mm
03:35 AM 58.8°F14.9°C 49.1°F9.5°C 70% Calm Calm -- 30.09 in1019.0 mb 0.00 in0.0 mm 0.00 in/hr0.0 mm/hr 0.00 in0.0 mm
03:39 AM 58.8°F14.9°C 49.1°F9.5°C 70% Calm Calm -- 30.09 in1019.0 mb 0.00 in0.0 mm 0.00 in/hr0.0 mm/hr 0.00 in0.0 mm
03:44 AM 58.8°F14.9°C 49.1°F9.5°C 70% Calm Calm -- 30.09 in1019.0 mb 0.00 in0.0 mm 0.00 in/hr0.0 mm/hr 0.00 in0.0 mm
03:49 AM 58.8°F14.9°C 49.1°F9.5°C 70% Calm Calm -- 30.09 in1019.0 mb 0.00 in0.0 mm 0.00 in/hr0.0 mm/hr 0.00 in0.0 mm
03:54 AM 58.8°F14.9°C 49.1°F9.5°C 70% Calm Calm -- 30.09 in1019.0 mb 0.00 in0.0 mm 0.00 in/hr0.0 mm/hr 0.00 in0.0 mm
03:59 AM 58.8°F14.9°C 49.1°F9.5°C 70% Calm Calm -- 30.09 in1019.0 mb 0.00 in0.0 mm 0.00 in/hr0.0 mm/hr 0.00 in0.0 mm
04:04 AM 58.8°F14.9°C 49.1°F9.5°C 70% Calm Calm -- 30.09 in1019.0 mb 0.00 in0.0 mm 0.00 in/hr0.0 mm/hr 0.00 in0.0 mm
04:09 AM 58.8°F14.9°C 49.1°F9.5°C 70% Calm Calm -- 30.09 in1019.0 mb 0.00 in0.0 mm 0.00 in/hr0.0 mm/hr 0.00 in0.0 mm
04:14 AM 58.8°F14.9°C 49.1°F9.5°C 70% Calm Calm -- 30.09 in1019.0 mb 0.00 in0.0 mm 0.00 in/hr0.0 mm/hr 0.00 in0.0 mm
04:19 AM 58.8°F14.9°C 49.1°F9.5°C 70% Calm Calm -- 30.09 in1019.0 mb 0.00 in0.0 mm 0.00 in/hr0.0 mm/hr 0.00 in0.0 mm
04:25 AM 59.0°F15.0°C 49.2°F9.6°C 70% Calm Calm 2.1 mph3.4 kmh 30.09 in1019.0 mb 0.00 in0.0 mm 0.00 in/hr0.0 mm/hr 0.00 in0.0 mm
04:30 AM 59.0°F15.0°C 49.2°F9.6°C 70% Calm Calm -- 30.09 in1019.0 mb 0.00 in0.0 mm 0.00 in/hr0.0 mm/hr 0.00 in0.0 mm
04:35 AM 59.0°F15.0°C 49.2°F9.6°C 70% Calm Calm -- 30.09 in1019.0 mb 0.00 in0.0 mm 0.00 in/hr0.0 mm/hr 0.00 in0.0 mm
04:39 AM 59.0°F15.0°C 49.2°F9.6°C 70% Calm Calm -- 30.09 in1019.0 mb 0.00 in0.0 mm 0.00 in/hr0.0 mm/hr 0.00 in0.0 mm
04:44 AM 59.0°F15.0°C 49.2°F9.6°C 70% 6.3 mph NNE10.1 kmh NNE 6.8 mph10.9 kmh 30.09 in1019.0 mb 0.00 in0.0 mm 0.00 in/hr0.0 mm/hr 0.00 in0.0 mm
04:49 AM 59.0°F15.0°C 48.9°F9.4°C 69% 2.7 mph NNE4.3 kmh NNE 3.8 mph6.1 kmh 30.09 in1019.0 mb 0.00 in0.0 mm 0.00 in/hr0.0 mm/hr 0.00 in0.0 mm
04:54 AM 59.0°F15.0°C 48.9°F9.4°C 69% 5.5 mph NE8.9 kmh NE 6.0 mph9.7 kmh 30.09 in1019.0 mb 0.00 in0.0 mm 0.00 in/hr0.0 mm/hr 0.00 in0.0 mm
04:59 AM 59.2°F15.1°C 49.0°F9.4°C 69% 4.3 mph NNE6.9 kmh NNE 4.7 mph7.6 kmh 30.09 in1019.0 mb 0.00 in0.0 mm 0.00 in/hr0.0 mm/hr 0.00 in0.0 mm
05:04 AM 59.2°F15.1°C 49.0°F9.4°C 69% Calm Calm 3.8 mph6.1 kmh 30.09 in1019.0 mb 0.00 in0.0 mm 0.00 in/hr0.0 mm/hr 0.00 in0.0 mm
05:09 AM 59.2°F15.1°C 48.6°F9.2°C 68% Calm Calm 2.1 mph3.4 kmh 30.09 in1019.0 mb 0.00 in0.0 mm 0.00 in/hr0.0 mm/hr 0.00 in0.0 mm
05:14 AM 59.2°F15.1°C 48.6°F9.2°C 68% 2.3 mph NNE3.7 kmh NNE 3.8 mph6.1 kmh 30.09 in1019.0 mb 0.00 in0.0 mm 0.00 in/hr0.0 mm/hr 0.00 in0.0 mm
05:19 AM 59.2°F15.1°C 48.6°F9.2°C 68% Calm Calm 4.3 mph6.9 kmh 30.09 in1019.0 mb 0.00 in0.0 mm 0.00 in/hr0.0 mm/hr 0.00 in0.0 mm
05:25 AM 59.2°F15.1°C 48.6°F9.2°C 68% Calm Calm -- 30.09 in1019.0 mb 0.00 in0.0 mm 0.00 in/hr0.0 mm/hr 0.00 in0.0 mm
05:30 AM 59.2°F15.1°C 48.6°F9.2°C 68% Calm Calm -- 30.09 in1019.0 mb 0.00 in0.0 mm 0.00 in/hr0.0 mm/hr 0.00 in0.0 mm
05:35 AM 59.2°F15.1°C 48.6°F9.2°C 68% Calm Calm -- 30.09 in1019.0 mb 0.00 in0.0 mm 0.00 in/hr0.0 mm/hr 0.00 in0.0 mm
05:40 AM 59.0°F15.0°C 48.5°F9.2°C 68% Calm Calm -- 30.09 in1019.0 mb 0.00 in0.0 mm 0.00 in/hr0.0 mm/hr 0.00 in0.0 mm
05:44 AM 59.0°F15.0°C 48.5°F9.2°C 68% Calm Calm -- 30.09 in1019.0 mb 0.00 in0.0 mm 0.00 in/hr0.0 mm/hr 0.00 in0.0 mm
05:49 AM 59.0°F15.0°C 48.5°F9.2°C 68% Calm Calm -- 30.09 in1019.0 mb 0.00 in0.0 mm 0.00 in/hr0.0 mm/hr 0.00 in0.0 mm
05:54 AM 59.0°F15.0°C 48.5°F9.2°C 68% Calm Calm -- 30.09 in1019.0 mb 0.00 in0.0 mm 0.00 in/hr0.0 mm/hr 0.00 in0.0 mm
05:59 AM 58.8°F14.9°C 48.3°F9.1°C 68% Calm Calm -- 30.09 in1019.0 mb 0.00 in0.0 mm 0.00 in/hr0.0 mm/hr 0.00 in0.0 mm
06:04 AM 58.8°F14.9°C 48.3°F9.1°C 68% 2.0 mph SSE3.2 kmh SSE 2.1 mph3.4 kmh 30.09 in1019.0 mb 0.00 in0.0 mm 0.00 in/hr0.0 mm/hr 0.00 in0.0 mm
06:09 AM 58.8°F14.9°C 48.3°F9.1°C 68% Calm Calm -- 30.09 in1019.0 mb 0.00 in0.0 mm 0.00 in/hr0.0 mm/hr 0.00 in0.0 mm
06:14 AM 58.6°F14.8°C 48.1°F8.9°C 68% Calm Calm -- 30.09 in1019.0 mb 0.00 in0.0 mm 0.00 in/hr0.0 mm/hr 0.00 in0.0 mm
06:19 AM 58.6°F14.8°C 48.1°F8.9°C 68% Calm Calm -- 30.09 in1019.0 mb 0.00 in0.0 mm 0.00 in/hr0.0 mm/hr 0.00 in0.0 mm
06:25 AM 58.5°F14.7°C 48.0°F8.9°C 68% Calm Calm -- 30.09 in1019.0 mb 0.00 in0.0 mm 0.00 in/hr0.0 mm/hr 0.00 in0.0 mm
06:30 AM 58.3°F14.6°C 47.8°F8.8°C 68% Calm Calm -- 30.09 in1019.0 mb 0.00 in0.0 mm 0.00 in/hr0.0 mm/hr 0.00 in0.0 mm
06:35 AM 58.3°F14.6°C 47.8°F8.8°C 68% Calm Calm -- 30.09 in1019.0 mb 0.00 in0.0 mm 0.00 in/hr0.0 mm/hr 0.00 in0.0 mm
06:39 AM 58.1°F14.5°C 47.6°F8.7°C 68% Calm Calm -- 30.09 in1019.0 mb 0.00 in0.0 mm 0.00 in/hr0.0 mm/hr 0.00 in0.0 mm
06:44 AM 58.1°F14.5°C 48.0°F8.9°C 69% Calm Calm -- 30.09 in1019.0 mb 0.00 in0.0 mm 0.00 in/hr0.0 mm/hr 0.00 in0.0 mm
06:49 AM 57.9°F14.4°C 47.8°F8.8°C 69% Calm Calm -- 30.09 in1019.0 mb 0.00 in0.0 mm 0.00 in/hr0.0 mm/hr 0.00 in0.0 mm
06:54 AM 57.7°F14.3°C 47.7°F8.7°C 69% Calm Calm -- 30.09 in1019.0 mb 0.00 in0.0 mm 0.00 in/hr0.0 mm/hr 0.00 in0.0 mm
06:59 AM 57.7°F14.3°C 47.7°F8.7°C 69% Calm Calm -- 30.09 in1019.0 mb 0.00 in0.0 mm 0.00 in/hr0.0 mm/hr 0.00 in0.0 mm
07:04 AM 57.6°F14.2°C 47.9°F8.8°C 70% Calm Calm -- 30.09 in1019.0 mb 0.00 in0.0 mm 0.00 in/hr0.0 mm/hr 0.00 in0.0 mm
07:09 AM 57.4°F14.1°C 47.7°F8.7°C 70% Calm Calm -- 30.09 in1019.0 mb 0.00 in0.0 mm 0.00 in/hr0.0 mm/hr 0.00 in0.0 mm
07:14 AM 57.4°F14.1°C 47.7°F8.7°C 70% Calm Calm -- 30.09 in1019.0 mb 0.00 in0.0 mm 0.00 in/hr0.0 mm/hr 0.00 in0.0 mm
07:19 AM 57.4°F14.1°C 48.1°F8.9°C 71% Calm Calm -- 30.09 in1019.0 mb 0.00 in0.0 mm 0.00 in/hr0.0 mm/hr 0.00 in0.0 mm
07:24 AM 57.2°F14.0°C 47.9°F8.8°C 71% Calm Calm -- 30.09 in1019.0 mb 0.00 in0.0 mm 0.00 in/hr0.0 mm/hr 0.00 in0.0 mm
07:30 AM 57.2°F14.0°C 47.9°F8.8°C 71% Calm Calm -- 30.09 in1019.0 mb 0.00 in0.0 mm 0.00 in/hr0.0 mm/hr 0.00 in0.0 mm
07:35 AM 57.2°F14.0°C 48.3°F9.1°C 72% Calm Calm -- 30.09 in1019.0 mb 0.00 in0.0 mm 0.00 in/hr0.0 mm/hr 0.00 in0.0 mm
07:40 AM 57.2°F14.0°C 48.3°F9.1°C 72% Calm Calm -- 30.09 in1019.0 mb 0.00 in0.0 mm 0.00 in/hr0.0 mm/hr 0.00 in0.0 mm
07:44 AM 57.2°F14.0°C 48.3°F9.1°C 72% Calm Calm -- 30.09 in1019.0 mb 0.00 in0.0 mm 0.00 in/hr0.0 mm/hr 0.00 in0.0 mm
07:49 AM 57.4°F14.1°C 48.8°F9.3°C 73% 2.7 mph SSE4.3 kmh SSE 3.0 mph4.8 kmh 30.09 in1019.0 mb 0.00 in0.0 mm 0.00 in/hr0.0 mm/hr 0.00 in0.0 mm
07:54 AM 57.4°F14.1°C 48.8°F9.3°C 73% Calm Calm -- 30.09 in1019.0 mb 0.00 in0.0 mm 0.00 in/hr0.0 mm/hr 0.00 in0.0 mm
07:59 AM 57.6°F14.2°C 48.6°F9.2°C 72% Calm Calm -- 30.09 in1019.0 mb 0.00 in0.0 mm 0.00 in/hr0.0 mm/hr 0.00 in0.0 mm
08:04 AM 57.6°F14.2°C 48.6°F9.2°C 72% Calm Calm -- 30.09 in1019.0 mb 0.00 in0.0 mm 0.00 in/hr0.0 mm/hr 0.00 in0.0 mm
08:09 AM 57.6°F14.2°C 48.6°F9.2°C 72% Calm Calm -- 30.09 in1019.0 mb 0.00 in0.0 mm 0.00 in/hr0.0 mm/hr 0.00 in0.0 mm
08:14 AM 57.6°F14.2°C 48.2°F9.0°C 71% Calm Calm -- 30.09 in1019.0 mb 0.00 in0.0 mm 0.00 in/hr0.0 mm/hr 0.00 in0.0 mm
08:19 AM 57.6°F14.2°C 48.2°F9.0°C 71% Calm Calm -- 30.09 in1019.0 mb 0.00 in0.0 mm 0.00 in/hr0.0 mm/hr 0.00 in0.0 mm
08:24 AM 57.7°F14.3°C 48.4°F9.1°C 71% Calm Calm -- 30.09 in1019.0 mb 0.00 in0.0 mm 0.00 in/hr0.0 mm/hr 0.00 in0.0 mm
08:30 AM 57.9°F14.4°C 48.6°F9.2°C 71% Calm Calm -- 30.09 in1019.0 mb 0.00 in0.0 mm 0.00 in/hr0.0 mm/hr 0.00 in0.0 mm
08:35 AM 57.9°F14.4°C 48.6°F9.2°C 71% Calm Calm -- 30.09 in1019.0 mb 0.00 in0.0 mm 0.00 in/hr0.0 mm/hr 0.00 in0.0 mm
08:40 AM 58.3°F14.6°C 48.9°F9.4°C 71% Calm Calm -- 30.09 in1019.0 mb 0.00 in0.0 mm 0.00 in/hr0.0 mm/hr 0.00 in0.0 mm
08:44 AM 58.5°F14.7°C 49.1°F9.5°C 71% Calm Calm -- 30.12 in1020.0 mb 0.00 in0.0 mm 0.00 in/hr0.0 mm/hr 0.00 in0.0 mm
08:49 AM 58.6°F14.8°C 49.3°F9.6°C 71% Calm Calm -- 30.12 in1020.0 mb 0.00 in0.0 mm 0.00 in/hr0.0 mm/hr 0.00 in0.0 mm
08:54 AM 59.0°F15.0°C 49.6°F9.8°C 71% Calm Calm -- 30.12 in1020.0 mb 0.00 in0.0 mm 0.00 in/hr0.0 mm/hr 0.00 in0.0 mm
08:59 AM 59.4°F15.2°C 50.0°F10.0°C 71% Calm Calm -- 30.12 in1020.0 mb 0.00 in0.0 mm 0.00 in/hr0.0 mm/hr 0.00 in0.0 mm
09:04 AM 59.5°F15.3°C 50.1°F10.1°C 71% Calm Calm -- 30.12 in1020.0 mb 0.00 in0.0 mm 0.00 in/hr0.0 mm/hr 0.00 in0.0 mm
09:09 AM 60.1°F15.6°C 50.7°F10.4°C 71% Calm Calm -- 30.12 in1020.0 mb 0.00 in0.0 mm 0.00 in/hr0.0 mm/hr 0.00 in0.0 mm
09:14 AM 60.4°F15.8°C 51.0°F10.6°C 71% 3.9 mph NNE6.3 kmh NNE 4.3 mph6.9 kmh 30.12 in1020.0 mb 0.00 in0.0 mm 0.00 in/hr0.0 mm/hr 0.00 in0.0 mm
09:19 AM 60.6°F15.9°C 51.2°F10.7°C 71% 2.7 mph NE4.3 kmh NE 5.5 mph8.9 kmh 30.12 in1020.0 mb 0.00 in0.0 mm 0.00 in/hr0.0 mm/hr 0.00 in0.0 mm
09:24 AM 61.0°F16.1°C 50.8°F10.4°C 69% 2.7 mph NE4.3 kmh NE 4.7 mph7.6 kmh 30.12 in1020.0 mb 0.00 in0.0 mm 0.00 in/hr0.0 mm/hr 0.00 in0.0 mm
09:30 AM 61.3°F16.3°C 51.1°F10.6°C 69% Calm Calm -- 30.12 in1020.0 mb 0.00 in0.0 mm 0.00 in/hr0.0 mm/hr 0.00 in0.0 mm
09:35 AM 61.7°F16.5°C 51.4°F10.8°C 69% 2.3 mph NNE3.7 kmh NNE 3.0 mph4.8 kmh 30.12 in1020.0 mb 0.00 in0.0 mm 0.00 in/hr0.0 mm/hr 0.00 in0.0 mm
09:40 AM 61.9°F16.6°C 51.2°F10.7°C 68% Calm Calm -- 30.12 in1020.0 mb 0.00 in0.0 mm 0.00 in/hr0.0 mm/hr 0.00 in0.0 mm
09:44 AM 62.2°F16.8°C 51.6°F10.9°C 68% Calm Calm -- 30.12 in1020.0 mb 0.00 in0.0 mm 0.00 in/hr0.0 mm/hr 0.00 in0.0 mm
09:49 AM 62.4°F16.9°C 51.7°F10.9°C 68% Calm Calm -- 30.12 in1020.0 mb 0.00 in0.0 mm 0.00 in/hr0.0 mm/hr 0.00 in0.0 mm
09:54 AM 63.0°F17.2°C 52.3°F11.3°C 68% Calm Calm -- 30.12 in1020.0 mb 0.00 in0.0 mm 0.00 in/hr0.0 mm/hr 0.00 in0.0 mm
09:59 AM 63.1°F17.3°C 52.4°F11.3°C 68% Calm Calm -- 30.12 in1020.0 mb 0.00 in0.0 mm 0.00 in/hr0.0 mm/hr 0.00 in0.0 mm
10:03 AM 63.9°F17.7°C 53.1°F11.7°C 68% Calm Calm -- 30.12 in1020.0 mb 0.00 in0.0 mm 0.00 in/hr0.0 mm/hr 0.00 in0.0 mm
10:09 AM 64.4°F18.0°C 53.2°F11.8°C 67% Calm Calm -- 30.12 in1020.0 mb 0.00 in0.0 mm 0.00 in/hr0.0 mm/hr 0.00 in0.0 mm
10:14 AM 64.8°F18.2°C 53.6°F12.0°C 67% 3.5 mph NE5.6 kmh NE 3.8 mph6.1 kmh 30.12 in1020.0 mb 0.00 in0.0 mm 0.00 in/hr0.0 mm/hr 0.00 in0.0 mm
10:19 AM 64.9°F18.3°C 53.3°F11.8°C 66% Calm Calm -- 30.12 in1020.0 mb 0.00 in0.0 mm 0.00 in/hr0.0 mm/hr 0.00 in0.0 mm
10:24 AM 65.3°F18.5°C 53.7°F12.1°C 66% 3.9 mph SSE6.3 kmh SSE 4.3 mph6.9 kmh 30.12 in1020.0 mb 0.00 in0.0 mm 0.00 in/hr0.0 mm/hr 0.00 in0.0 mm
10:30 AM 65.7°F18.7°C 53.6°F12.0°C 65% Calm Calm 2.1 mph3.4 kmh 30.12 in1020.0 mb 0.00 in0.0 mm 0.00 in/hr0.0 mm/hr 0.00 in0.0 mm
10:35 AM 66.0°F18.9°C 53.5°F11.9°C 64% 3.5 mph S5.6 kmh S 3.8 mph6.1 kmh 30.12 in1020.0 mb 0.00 in0.0 mm 0.00 in/hr0.0 mm/hr 0.00 in0.0 mm
10:40 AM 66.7°F19.3°C 54.2°F12.3°C 64% Calm Calm -- 30.12 in1020.0 mb 0.00 in0.0 mm 0.00 in/hr0.0 mm/hr 0.00 in0.0 mm
10:44 AM 67.6°F19.8°C 54.6°F12.6°C 63% 2.7 mph NE4.3 kmh NE 5.1 mph8.2 kmh 30.12 in1020.0 mb 0.00 in0.0 mm 0.00 in/hr0.0 mm/hr 0.00 in0.0 mm
10:48 AM 68.7°F20.4°C 54.7°F12.6°C 61% Calm Calm -- 30.12 in1020.0 mb 0.00 in0.0 mm 0.00 in/hr0.0 mm/hr 0.00 in0.0 mm
10:54 AM 70.3°F21.3°C 54.9°F12.7°C 58% Calm Calm -- 30.12 in1020.0 mb 0.00 in0.0 mm 0.00 in/hr0.0 mm/hr 0.00 in0.0 mm
10:59 AM 71.1°F21.7°C 54.1°F12.3°C 55% Calm Calm -- 30.12 in1020.0 mb 0.00 in0.0 mm 0.00 in/hr0.0 mm/hr 0.00 in0.0 mm
11:04 AM 71.4°F21.9°C 53.9°F12.2°C 54% Calm Calm -- 30.12 in1020.0 mb 0.00 in0.0 mm 0.00 in/hr0.0 mm/hr 0.00 in0.0 mm
11:09 AM 72.0°F22.2°C 53.4°F11.9°C 52% Calm Calm -- 30.12 in1020.0 mb 0.00 in0.0 mm 0.00 in/hr0.0 mm/hr 0.00 in0.0 mm
11:14 AM 71.4°F21.9°C 52.4°F11.3°C 51% Calm Calm -- 30.12 in1020.0 mb 0.00 in0.0 mm 0.00 in/hr0.0 mm/hr 0.00 in0.0 mm
11:19 AM 72.0°F22.2°C 52.3°F11.3°C 50% 5.9 mph NE9.5 kmh NE 6.4 mph10.3 kmh 30.12 in1020.0 mb 0.00 in0.0 mm 0.00 in/hr0.0 mm/hr 0.00 in0.0 mm
11:24 AM 69.8°F21.0°C 49.8°F9.9°C 49% Calm Calm 6.8 mph10.9 kmh 30.12 in1020.0 mb 0.00 in0.0 mm 0.00 in/hr0.0 mm/hr 0.00 in0.0 mm
11:30 AM 68.9°F20.5°C 49.5°F9.7°C 50% Calm Calm -- 30.12 in1020.0 mb 0.00 in0.0 mm 0.00 in/hr0.0 mm/hr 0.00 in0.0 mm
11:35 AM 68.4°F20.2°C 49.0°F9.4°C 50% Calm Calm -- 30.12 in1020.0 mb 0.00 in0.0 mm 0.00 in/hr0.0 mm/hr 0.00 in0.0 mm
11:40 AM 68.0°F20.0°C 49.2°F9.6°C 51% Calm Calm -- 30.12 in1020.0 mb 0.00 in0.0 mm 0.00 in/hr0.0 mm/hr 0.00 in0.0 mm
11:44 AM 67.5°F19.7°C 48.7°F9.3°C 51% Calm Calm -- 30.12 in1020.0 mb 0.00 in0.0 mm 0.00 in/hr0.0 mm/hr 0.00 in0.0 mm
11:49 AM 67.3°F19.6°C 49.1°F9.5°C 52% Calm Calm -- 30.12 in1020.0 mb 0.00 in0.0 mm 0.00 in/hr0.0 mm/hr 0.00 in0.0 mm
11:54 AM 66.9°F19.4°C 48.7°F9.3°C 52% Calm Calm -- 30.12 in1020.0 mb 0.00 in0.0 mm 0.00 in/hr0.0 mm/hr 0.00 in0.0 mm
11:59 AM 66.6°F19.2°C 48.9°F9.4°C 53% 8.2 mph 13.2 kmh 8.9 mph14.3 kmh 30.12 in1020.0 mb 0.00 in0.0 mm 0.00 in/hr0.0 mm/hr 0.00 in0.0 mm
12:04 PM 66.2°F19.0°C 49.1°F9.5°C 54% 5.5 mph NE8.9 kmh NE 6.0 mph9.7 kmh 30.12 in1020.0 mb 0.00 in0.0 mm 0.00 in/hr0.0 mm/hr 0.00 in0.0 mm
12:09 PM 66.0°F18.9°C 49.4°F9.7°C 55% 2.3 mph WNW3.7 kmh WNW 4.3 mph6.9 kmh 30.12 in1020.0 mb 0.00 in0.0 mm 0.00 in/hr0.0 mm/hr 0.00 in0.0 mm
12:14 PM 65.8°F18.8°C 49.7°F9.8°C 56% 4.3 mph NNE6.9 kmh NNE 4.7 mph7.6 kmh 30.12 in1020.0 mb 0.00 in0.0 mm 0.00 in/hr0.0 mm/hr 0.00 in0.0 mm
12:19 PM 65.8°F18.8°C 49.7°F9.8°C 56% 5.9 mph NNE9.5 kmh NNE 6.4 mph10.3 kmh 30.12 in1020.0 mb 0.00 in0.0 mm 0.00 in/hr0.0 mm/hr 0.00 in0.0 mm
12:24 PM 66.0°F18.9°C 49.9°F9.9°C 56% Calm Calm 2.6 mph4.2 kmh 30.12 in1020.0 mb 0.00 in0.0 mm 0.00 in/hr0.0 mm/hr 0.00 in0.0 mm
12:30 PM 65.8°F18.8°C 49.7°F9.8°C 56% 6.3 mph NE10.1 kmh NE 7.2 mph11.6 kmh 30.12 in1020.0 mb 0.00 in0.0 mm 0.00 in/hr0.0 mm/hr 0.00 in0.0 mm
12:35 PM 65.7°F18.7°C 49.6°F9.8°C 56% 3.5 mph NE5.6 kmh NE 3.8 mph6.1 kmh 30.12 in1020.0 mb 0.00 in0.0 mm 0.00 in/hr0.0 mm/hr 0.00 in0.0 mm
12:40 PM 65.5°F18.6°C 49.4°F9.7°C 56% 5.9 mph NNE9.5 kmh NNE 6.4 mph10.3 kmh 30.12 in1020.0 mb 0.00 in0.0 mm 0.00 in/hr0.0 mm/hr 0.00 in0.0 mm
12:45 PM 65.5°F18.6°C 49.9°F9.9°C 57% 2.7 mph 4.3 kmh 3.0 mph4.8 kmh 30.12 in1020.0 mb 0.00 in0.0 mm 0.00 in/hr0.0 mm/hr 0.00 in0.0 mm
12:49 PM 65.7°F18.7°C 49.6°F9.8°C 56% 7.4 mph 11.9 kmh 8.1 mph13.0 kmh 30.12 in1020.0 mb 0.00 in0.0 mm 0.00 in/hr0.0 mm/hr 0.00 in0.0 mm
12:54 PM 65.5°F18.6°C 49.4°F9.7°C 56% Calm Calm 9.4 mph15.1 kmh 30.12 in1020.0 mb 0.00 in0.0 mm 0.00 in/hr0.0 mm/hr 0.00 in0.0 mm
12:59 PM 65.3°F18.5°C 49.2°F9.6°C 56% 2.7 mph NNE4.3 kmh NNE 3.0 mph4.8 kmh 30.09 in1019.0 mb 0.00 in0.0 mm 0.00 in/hr0.0 mm/hr 0.00 in0.0 mm
01:04 PM 65.3°F18.5°C 49.2°F9.6°C 56% Calm Calm 2.1 mph3.4 kmh 30.09 in1019.0 mb 0.00 in0.0 mm 0.00 in/hr0.0 mm/hr 0.00 in0.0 mm
01:09 PM 65.5°F18.6°C 49.9°F9.9°C 57% Calm Calm -- 30.09 in1019.0 mb 0.00 in0.0 mm 0.00 in/hr0.0 mm/hr 0.00 in0.0 mm
01:14 PM 65.5°F18.6°C 49.4°F9.7°C 56% Calm Calm -- 30.09 in1019.0 mb 0.00 in0.0 mm 0.00 in/hr0.0 mm/hr 0.00 in0.0 mm
01:19 PM 65.5°F18.6°C 49.4°F9.7°C 56% 4.3 mph NNE6.9 kmh NNE 4.7 mph7.6 kmh 30.09 in1019.0 mb 0.00 in0.0 mm 0.00 in/hr0.0 mm/hr 0.00 in0.0 mm
01:24 PM 65.1°F18.4°C 49.1°F9.5°C 56% 2.7 mph NNE4.3 kmh NNE 5.1 mph8.2 kmh 30.09 in1019.0 mb 0.00 in0.0 mm 0.00 in/hr0.0 mm/hr 0.00 in0.0 mm
01:29 PM 65.1°F18.4°C 49.1°F9.5°C 56% Calm Calm -- 30.09 in1019.0 mb 0.00 in0.0 mm 0.00 in/hr0.0 mm/hr 0.00 in0.0 mm
01:35 PM 65.5°F18.6°C 49.9°F9.9°C 57% 5.1 mph NE8.2 kmh NE 5.5 mph8.9 kmh 30.09 in1019.0 mb 0.00 in0.0 mm 0.00 in/hr0.0 mm/hr 0.00 in0.0 mm
01:40 PM 65.5°F18.6°C 49.4°F9.7°C 56% Calm Calm 4.3 mph6.9 kmh 30.09 in1019.0 mb 0.00 in0.0 mm 0.00 in/hr0.0 mm/hr 0.00 in0.0 mm
01:44 PM 65.7°F18.7°C 50.0°F10.0°C 57% Calm Calm -- 30.09 in1019.0 mb 0.00 in0.0 mm 0.00 in/hr0.0 mm/hr 0.00 in0.0 mm
01:49 PM 65.8°F18.8°C 49.7°F9.8°C 56% 4.3 mph NE6.9 kmh NE 4.7 mph7.6 kmh 30.09 in1019.0 mb 0.00 in0.0 mm 0.00 in/hr0.0 mm/hr 0.00 in0.0 mm
01:54 PM 65.8°F18.8°C 50.2°F10.1°C 57% 2.3 mph S3.7 kmh S 2.6 mph4.2 kmh 30.09 in1019.0 mb 0.00 in0.0 mm 0.00 in/hr0.0 mm/hr 0.00 in0.0 mm
01:59 PM 66.0°F18.9°C 50.4°F10.2°C 57% Calm Calm 1.7 mph2.7 kmh 30.09 in1019.0 mb 0.00 in0.0 mm 0.00 in/hr0.0 mm/hr 0.00 in0.0 mm
02:04 PM 66.2°F19.0°C 50.1°F10.1°C 56% 2.3 mph NNW3.7 kmh NNW 4.7 mph7.6 kmh 30.09 in1019.0 mb 0.00 in0.0 mm 0.00 in/hr0.0 mm/hr 0.00 in0.0 mm
02:09 PM 66.0°F18.9°C 49.9°F9.9°C 56% Calm Calm 1.7 mph2.7 kmh 30.09 in1019.0 mb 0.00 in0.0 mm 0.00 in/hr0.0 mm/hr 0.00 in0.0 mm
02:14 PM 66.0°F18.9°C 49.9°F9.9°C 56% 2.7 mph SSE4.3 kmh SSE 3.0 mph4.8 kmh 30.09 in1019.0 mb 0.00 in0.0 mm 0.00 in/hr0.0 mm/hr 0.00 in0.0 mm
02:19 PM 66.0°F18.9°C 49.9°F9.9°C 56% Calm Calm -- 30.09 in1019.0 mb 0.00 in0.0 mm 0.00 in/hr0.0 mm/hr 0.00 in0.0 mm
02:24 PM 65.8°F18.8°C 49.7°F9.8°C 56% Calm Calm -- 30.09 in1019.0 mb 0.00 in0.0 mm 0.00 in/hr0.0 mm/hr 0.00 in0.0 mm
02:29 PM 65.8°F18.8°C 49.7°F9.8°C 56% 2.0 mph SE3.2 kmh SE 2.1 mph3.4 kmh 30.09 in1019.0 mb 0.00 in0.0 mm 0.00 in/hr0.0 mm/hr 0.00 in0.0 mm
02:35 PM 65.7°F18.7°C 49.6°F9.8°C 56% 3.9 mph NNE6.3 kmh NNE 4.3 mph6.9 kmh 30.09 in1019.0 mb 0.00 in0.0 mm 0.00 in/hr0.0 mm/hr 0.00 in0.0 mm
02:40 PM 65.7°F18.7°C 49.6°F9.8°C 56% Calm Calm -- 30.09 in1019.0 mb 0.00 in0.0 mm 0.00 in/hr0.0 mm/hr 0.00 in0.0 mm
02:45 PM 65.7°F18.7°C 49.6°F9.8°C 56% Calm Calm -- 30.09 in1019.0 mb 0.00 in0.0 mm 0.00 in/hr0.0 mm/hr 0.00 in0.0 mm
02:49 PM 65.5°F18.6°C 49.9°F9.9°C 57% 3.5 mph ESE5.6 kmh ESE 8.1 mph13.0 kmh 30.09 in1019.0 mb 0.00 in0.0 mm 0.00 in/hr0.0 mm/hr 0.00 in0.0 mm
02:53 PM 65.5°F18.6°C 49.9°F9.9°C 57% Calm Calm 4.3 mph6.9 kmh 30.09 in1019.0 mb 0.00 in0.0 mm 0.00 in/hr0.0 mm/hr 0.00 in0.0 mm
02:59 PM 65.5°F18.6°C 49.9°F9.9°C 57% 2.3 mph NE3.7 kmh NE 2.6 mph4.2 kmh 30.09 in1019.0 mb 0.00 in0.0 mm 0.00 in/hr0.0 mm/hr 0.00 in0.0 mm
03:04 PM 65.3°F18.5°C 50.2°F10.1°C 58% Calm Calm -- 30.09 in1019.0 mb 0.00 in0.0 mm 0.00 in/hr0.0 mm/hr 0.00 in0.0 mm
03:09 PM 65.3°F18.5°C 50.2°F10.1°C 58% 4.3 mph SSE6.9 kmh SSE 4.7 mph7.6 kmh 30.09 in1019.0 mb 0.00 in0.0 mm 0.00 in/hr0.0 mm/hr 0.00 in0.0 mm
03:14 PM 65.3°F18.5°C 50.2°F10.1°C 58% Calm Calm -- 30.09 in1019.0 mb 0.00 in0.0 mm 0.00 in/hr0.0 mm/hr 0.00 in0.0 mm
03:19 PM 65.1°F18.4°C 50.5°F10.3°C 59% 1.6 mph NE2.6 kmh NE 3.8 mph6.1 kmh 30.09 in1019.0 mb 0.00 in0.0 mm 0.00 in/hr0.0 mm/hr 0.00 in0.0 mm
03:24 PM 65.1°F18.4°C 50.9°F10.5°C 60% Calm Calm -- 30.09 in1019.0 mb 0.00 in0.0 mm 0.00 in/hr0.0 mm/hr 0.00 in0.0 mm
03:29 PM 65.1°F18.4°C 50.9°F10.5°C 60% Calm Calm -- 30.09 in1019.0 mb 0.00 in0.0 mm 0.00 in/hr0.0 mm/hr 0.00 in0.0 mm
03:35 PM 65.1°F18.4°C 51.4°F10.8°C 61% Calm Calm -- 30.09 in1019.0 mb 0.00 in0.0 mm 0.00 in/hr0.0 mm/hr 0.00 in0.0 mm
03:40 PM 65.3°F18.5°C 51.5°F10.8°C 61% Calm Calm -- 30.09 in1019.0 mb 0.00 in0.0 mm 0.00 in/hr0.0 mm/hr 0.00 in0.0 mm
03:45 PM 65.3°F18.5°C 51.5°F10.8°C 61% Calm Calm 2.1 mph3.4 kmh 30.09 in1019.0 mb 0.00 in0.0 mm 0.00 in/hr0.0 mm/hr 0.00 in0.0 mm
03:49 PM 65.3°F18.5°C 52.0°F11.1°C 62% 2.7 mph ESE4.3 kmh ESE 5.1 mph8.2 kmh 30.09 in1019.0 mb 0.00 in0.0 mm 0.00 in/hr0.0 mm/hr 0.00 in0.0 mm
03:54 PM 65.3°F18.5°C 52.0°F11.1°C 62% Calm Calm -- 30.09 in1019.0 mb 0.00 in0.0 mm 0.00 in/hr0.0 mm/hr 0.00 in0.0 mm
03:59 PM 65.1°F18.4°C 51.8°F11.0°C 62% Calm Calm -- 30.09 in1019.0 mb 0.00 in0.0 mm 0.00 in/hr0.0 mm/hr 0.00 in0.0 mm
04:04 PM 65.1°F18.4°C 51.8°F11.0°C 62% Calm Calm -- 30.09 in1019.0 mb 0.00 in0.0 mm 0.00 in/hr0.0 mm/hr 0.00 in0.0 mm
04:09 PM 64.9°F18.3°C 52.1°F11.2°C 63% Calm Calm 3.8 mph6.1 kmh 30.09 in1019.0 mb 0.00 in0.0 mm 0.00 in/hr0.0 mm/hr 0.00 in0.0 mm
04:14 PM 64.8°F18.2°C 51.9°F11.1°C 63% 2.7 mph SE4.3 kmh SE 4.3 mph6.9 kmh 30.09 in1019.0 mb 0.00 in0.0 mm 0.00 in/hr0.0 mm/hr 0.00 in0.0 mm
04:19 PM 64.6°F18.1°C 51.7°F10.9°C 63% Calm Calm 5.5 mph8.9 kmh 30.09 in1019.0 mb 0.00 in0.0 mm 0.00 in/hr0.0 mm/hr 0.00 in0.0 mm
04:24 PM 64.4°F18.0°C 51.6°F10.9°C 63% Calm Calm 4.7 mph7.6 kmh 30.09 in1019.0 mb 0.00 in0.0 mm 0.00 in/hr0.0 mm/hr 0.00 in0.0 mm
04:29 PM 64.4°F18.0°C 52.0°F11.1°C 64% 2.0 mph SSW3.2 kmh SSW 2.1 mph3.4 kmh 30.09 in1019.0 mb 0.00 in0.0 mm 0.00 in/hr0.0 mm/hr 0.00 in0.0 mm
04:35 PM 64.4°F18.0°C 52.4°F11.3°C 65% Calm Calm -- 30.09 in1019.0 mb 0.00 in0.0 mm 0.00 in/hr0.0 mm/hr 0.00 in0.0 mm
04:40 PM 64.2°F17.9°C 52.2°F11.2°C 65% Calm Calm 1.7 mph2.7 kmh 30.09 in1019.0 mb 0.00 in0.0 mm 0.00 in/hr0.0 mm/hr 0.00 in0.0 mm
04:45 PM 64.2°F17.9°C 52.2°F11.2°C 65% Calm Calm -- 30.09 in1019.0 mb 0.00 in0.0 mm 0.00 in/hr0.0 mm/hr 0.00 in0.0 mm
04:49 PM 64.2°F17.9°C 52.2°F11.2°C 65% 2.0 mph WNW3.2 kmh WNW 2.1 mph3.4 kmh 30.09 in1019.0 mb 0.00 in0.0 mm 0.00 in/hr0.0 mm/hr 0.00 in0.0 mm
04:54 PM 64.2°F17.9°C 52.6°F11.4°C 66% Calm Calm 7.2 mph11.6 kmh 30.09 in1019.0 mb 0.00 in0.0 mm 0.00 in/hr0.0 mm/hr 0.00 in0.0 mm
04:59 PM 64.2°F17.9°C 52.2°F11.2°C 65% 2.0 mph S3.2 kmh S 2.1 mph3.4 kmh 30.09 in1019.0 mb 0.00 in0.0 mm 0.00 in/hr0.0 mm/hr 0.00 in0.0 mm
05:04 PM 64.2°F17.9°C 52.2°F11.2°C 65% Calm Calm 2.1 mph3.4 kmh 30.09 in1019.0 mb 0.00 in0.0 mm 0.00 in/hr0.0 mm/hr 0.00 in0.0 mm
05:09 PM 64.2°F17.9°C 52.2°F11.2°C 65% Calm Calm -- 30.09 in1019.0 mb 0.00 in0.0 mm 0.00 in/hr0.0 mm/hr 0.00 in0.0 mm
05:13 PM 64.2°F17.9°C 52.2°F11.2°C 65% 4.7 mph SSE7.6 kmh SSE 5.1 mph8.2 kmh 30.09 in1019.0 mb 0.00 in0.0 mm 0.00 in/hr0.0 mm/hr 0.00 in0.0 mm
05:19 PM 64.2°F17.9°C 52.2°F11.2°C 65% Calm Calm -- 30.09 in1019.0 mb 0.00 in0.0 mm 0.00 in/hr0.0 mm/hr 0.00 in0.0 mm
05:24 PM 64.2°F17.9°C 52.2°F11.2°C 65% Calm Calm -- 30.09 in1019.0 mb 0.00 in0.0 mm 0.00 in/hr0.0 mm/hr 0.00 in0.0 mm
05:29 PM 64.0°F17.8°C 52.1°F11.2°C 65% 2.0 mph WNW3.2 kmh WNW 2.1 mph3.4 kmh 30.09 in1019.0 mb 0.00 in0.0 mm 0.00 in/hr0.0 mm/hr 0.00 in0.0 mm
05:35 PM 64.0°F17.8°C 52.1°F11.2°C 65% 2.3 mph 3.7 kmh 4.3 mph6.9 kmh 30.09 in1019.0 mb 0.00 in0.0 mm 0.00 in/hr0.0 mm/hr 0.00 in0.0 mm
05:40 PM 64.0°F17.8°C 52.5°F11.4°C 66% Calm Calm -- 30.09 in1019.0 mb 0.00 in0.0 mm 0.00 in/hr0.0 mm/hr 0.00 in0.0 mm
05:45 PM 64.0°F17.8°C 52.5°F11.4°C 66% Calm Calm -- 30.09 in1019.0 mb 0.00 in0.0 mm 0.00 in/hr0.0 mm/hr 0.00 in0.0 mm
05:49 PM 64.0°F17.8°C 52.5°F11.4°C 66% 2.7 mph NW4.3 kmh NW 3.0 mph4.8 kmh 30.09 in1019.0 mb 0.00 in0.0 mm 0.00 in/hr0.0 mm/hr 0.00 in0.0 mm
05:54 PM 64.0°F17.8°C 52.5°F11.4°C 66% Calm Calm -- 30.09 in1019.0 mb 0.00 in0.0 mm 0.00 in/hr0.0 mm/hr 0.00 in0.0 mm
05:59 PM 63.9°F17.7°C 52.3°F11.3°C 66% Calm Calm -- 30.09 in1019.0 mb 0.00 in0.0 mm 0.00 in/hr0.0 mm/hr 0.00 in0.0 mm
06:04 PM 63.9°F17.7°C 52.3°F11.3°C 66% Calm Calm -- 30.09 in1019.0 mb 0.00 in0.0 mm 0.00 in/hr0.0 mm/hr 0.00 in0.0 mm
06:09 PM 63.9°F17.7°C 52.3°F11.3°C 66% Calm Calm -- 30.09 in1019.0 mb 0.00 in0.0 mm 0.00 in/hr0.0 mm/hr 0.00 in0.0 mm
06:14 PM 63.9°F17.7°C 52.3°F11.3°C 66% Calm Calm 2.1 mph3.4 kmh 30.09 in1019.0 mb 0.00 in0.0 mm 0.00 in/hr0.0 mm/hr 0.00 in0.0 mm
06:19 PM 63.9°F17.7°C 52.7°F11.5°C 67% Calm Calm -- 30.09 in1019.0 mb 0.00 in0.0 mm 0.00 in/hr0.0 mm/hr 0.00 in0.0 mm
06:24 PM 63.9°F17.7°C 52.7°F11.5°C 67% Calm Calm 5.1 mph8.2 kmh 30.09 in1019.0 mb 0.00 in0.0 mm 0.00 in/hr0.0 mm/hr 0.00 in0.0 mm
06:29 PM 64.0°F17.8°C 52.9°F11.6°C 67% Calm Calm -- 30.09 in1019.0 mb 0.00 in0.0 mm 0.00 in/hr0.0 mm/hr 0.00 in0.0 mm
06:35 PM 64.0°F17.8°C 52.9°F11.6°C 67% Calm Calm -- 30.09 in1019.0 mb 0.00 in0.0 mm 0.00 in/hr0.0 mm/hr 0.00 in0.0 mm
06:40 PM 64.0°F17.8°C 52.9°F11.6°C 67% 1.6 mph S2.6 kmh S 1.7 mph2.7 kmh 30.09 in1019.0 mb 0.00 in0.0 mm 0.00 in/hr0.0 mm/hr 0.00 in0.0 mm
06:45 PM 64.0°F17.8°C 52.9°F11.6°C 67% Calm Calm -- 30.09 in1019.0 mb 0.00 in0.0 mm 0.00 in/hr0.0 mm/hr 0.00 in0.0 mm
06:50 PM 64.0°F17.8°C 53.3°F11.8°C 68% 5.9 mph NNE9.5 kmh NNE 6.4 mph10.3 kmh 30.09 in1019.0 mb 0.00 in0.0 mm 0.00 in/hr0.0 mm/hr 0.00 in0.0 mm
06:54 PM 64.0°F17.8°C 53.3°F11.8°C 68% 2.3 mph NNE3.7 kmh NNE 2.6 mph4.2 kmh 30.09 in1019.0 mb 0.00 in0.0 mm 0.00 in/hr0.0 mm/hr 0.00 in0.0 mm
06:58 PM 64.0°F17.8°C 53.3°F11.8°C 68% Calm Calm -- 30.12 in1020.0 mb 0.00 in0.0 mm 0.00 in/hr0.0 mm/hr 0.00 in0.0 mm
07:04 PM 64.0°F17.8°C 53.3°F11.8°C 68% 2.0 mph NNW3.2 kmh NNW 3.8 mph6.1 kmh 30.12 in1020.0 mb 0.00 in0.0 mm 0.00 in/hr0.0 mm/hr 0.00 in0.0 mm
07:09 PM 64.0°F17.8°C 53.3°F11.8°C 68% 1.6 mph SSE2.6 kmh SSE 1.7 mph2.7 kmh 30.12 in1020.0 mb 0.00 in0.0 mm 0.00 in/hr0.0 mm/hr 0.00 in0.0 mm
07:14 PM 64.0°F17.8°C 53.3°F11.8°C 68% Calm Calm -- 30.12 in1020.0 mb 0.00 in0.0 mm 0.00 in/hr0.0 mm/hr 0.00 in0.0 mm
07:19 PM 64.0°F17.8°C 53.3°F11.8°C 68% Calm Calm -- 30.12 in1020.0 mb 0.00 in0.0 mm 0.00 in/hr0.0 mm/hr 0.00 in0.0 mm
07:24 PM 64.0°F17.8°C 53.3°F11.8°C 68% Calm Calm 3.0 mph4.8 kmh 30.12 in1020.0 mb 0.00 in0.0 mm 0.00 in/hr0.0 mm/hr 0.00 in0.0 mm
07:29 PM 64.0°F17.8°C 53.3°F11.8°C 68% 4.3 mph S6.9 kmh S 4.7 mph7.6 kmh 30.12 in1020.0 mb 0.00 in0.0 mm 0.00 in/hr0.0 mm/hr 0.00 in0.0 mm
07:35 PM 64.0°F17.8°C 53.7°F12.1°C 69% Calm Calm -- 30.12 in1020.0 mb 0.00 in0.0 mm 0.00 in/hr0.0 mm/hr 0.00 in0.0 mm
07:39 PM 64.0°F17.8°C 53.7°F12.1°C 69% 2.7 mph W4.3 kmh W 3.0 mph4.8 kmh 30.12 in1020.0 mb 0.00 in0.0 mm 0.00 in/hr0.0 mm/hr 0.00 in0.0 mm
07:45 PM 64.0°F17.8°C 53.7°F12.1°C 69% 2.3 mph NW3.7 kmh NW 2.6 mph4.2 kmh 30.12 in1020.0 mb 0.00 in0.0 mm 0.00 in/hr0.0 mm/hr 0.00 in0.0 mm
07:50 PM 64.0°F17.8°C 54.1°F12.3°C 70% Calm Calm 2.6 mph4.2 kmh 30.12 in1020.0 mb 0.00 in0.0 mm 0.00 in/hr0.0 mm/hr 0.00 in0.0 mm
07:54 PM 64.0°F17.8°C 54.1°F12.3°C 70% 2.7 mph SSE4.3 kmh SSE 3.0 mph4.8 kmh 30.12 in1020.0 mb 0.00 in0.0 mm 0.00 in/hr0.0 mm/hr 0.00 in0.0 mm
07:59 PM 64.0°F17.8°C 54.1°F12.3°C 70% Calm Calm 3.0 mph4.8 kmh 30.12 in1020.0 mb 0.00 in0.0 mm 0.00 in/hr0.0 mm/hr 0.00 in0.0 mm
08:04 PM 63.9°F17.7°C 54.3°F12.4°C 71% Calm Calm 3.0 mph4.8 kmh 30.12 in1020.0 mb 0.00 in0.0 mm 0.00 in/hr0.0 mm/hr 0.00 in0.0 mm
08:09 PM 64.0°F17.8°C 54.5°F12.5°C 71% Calm Calm 1.7 mph2.7 kmh 30.12 in1020.0 mb 0.00 in0.0 mm 0.00 in/hr0.0 mm/hr 0.00 in0.0 mm
08:14 PM 63.9°F17.7°C 54.3°F12.4°C 71% Calm Calm -- 30.12 in1020.0 mb 0.00 in0.0 mm 0.00 in/hr0.0 mm/hr 0.00 in0.0 mm
08:19 PM 63.9°F17.7°C 54.3°F12.4°C 71% 3.5 mph SSE5.6 kmh SSE 3.8 mph6.1 kmh 30.12 in1020.0 mb 0.00 in0.0 mm 0.00 in/hr0.0 mm/hr 0.00 in0.0 mm
08:24 PM 64.0°F17.8°C 54.5°F12.5°C 71% 2.7 mph NNE4.3 kmh NNE 3.0 mph4.8 kmh 30.12 in1020.0 mb 0.00 in0.0 mm 0.00 in/hr0.0 mm/hr 0.00 in0.0 mm
08:28 PM 63.9°F17.7°C 54.3°F12.4°C 71% 1.6 mph NW2.6 kmh NW 1.7 mph2.7 kmh 30.12 in1020.0 mb 0.00 in0.0 mm 0.00 in/hr0.0 mm/hr 0.00 in0.0 mm
08:34 PM 63.9°F17.7°C 54.3°F12.4°C 71% 2.0 mph NW3.2 kmh NW 2.6 mph4.2 kmh 30.12 in1020.0 mb 0.00 in0.0 mm 0.00 in/hr0.0 mm/hr 0.00 in0.0 mm
08:40 PM 63.9°F17.7°C 54.3°F12.4°C 71% 1.6 mph NNE2.6 kmh NNE 4.7 mph7.6 kmh 30.12 in1020.0 mb 0.00 in0.0 mm 0.00 in/hr0.0 mm/hr 0.00 in0.0 mm
08:45 PM 63.9°F17.7°C 54.3°F12.4°C 71% 4.3 mph S6.9 kmh S 4.7 mph7.6 kmh 30.12 in1020.0 mb 0.00 in0.0 mm 0.00 in/hr0.0 mm/hr 0.00 in0.0 mm
08:50 PM 63.9°F17.7°C 54.3°F12.4°C 71% 4.3 mph 6.9 kmh 4.7 mph7.6 kmh 30.12 in1020.0 mb 0.00 in0.0 mm 0.00 in/hr0.0 mm/hr 0.00 in0.0 mm
08:55 PM 63.9°F17.7°C 54.3°F12.4°C 71% Calm Calm 4.7 mph7.6 kmh 30.12 in1020.0 mb 0.00 in0.0 mm 0.00 in/hr0.0 mm/hr 0.00 in0.0 mm
08:59 PM 63.9°F17.7°C 54.3°F12.4°C 71% 2.7 mph SE4.3 kmh SE 3.0 mph4.8 kmh 30.12 in1020.0 mb 0.00 in0.0 mm 0.00 in/hr0.0 mm/hr 0.00 in0.0 mm
09:04 PM 63.7°F17.6°C 54.1°F12.3°C 71% 2.7 mph NW4.3 kmh NW 7.7 mph12.4 kmh 30.12 in1020.0 mb 0.00 in0.0 mm 0.00 in/hr0.0 mm/hr 0.00 in0.0 mm
09:09 PM 63.7°F17.6°C 54.1°F12.3°C 71% Calm Calm 2.6 mph4.2 kmh 30.12 in1020.0 mb 0.00 in0.0 mm 0.00 in/hr0.0 mm/hr 0.00 in0.0 mm
09:14 PM 63.5°F17.5°C 53.9°F12.2°C 71% 5.1 mph 8.2 kmh 5.5 mph8.9 kmh 30.12 in1020.0 mb 0.00 in0.0 mm 0.00 in/hr0.0 mm/hr 0.00 in0.0 mm
09:19 PM 63.5°F17.5°C 53.9°F12.2°C 71% 4.3 mph 6.9 kmh 4.7 mph7.6 kmh 30.12 in1020.0 mb 0.00 in0.0 mm 0.00 in/hr0.0 mm/hr 0.00 in0.0 mm
09:23 PM 63.5°F17.5°C 53.9°F12.2°C 71% 2.7 mph NNW4.3 kmh NNW 3.0 mph4.8 kmh 30.12 in1020.0 mb 0.00 in0.0 mm 0.00 in/hr0.0 mm/hr 0.00 in0.0 mm
09:29 PM 63.3°F17.4°C 53.8°F12.1°C 71% 7.4 mph 11.9 kmh 8.1 mph13.0 kmh 30.12 in1020.0 mb 0.00 in0.0 mm 0.00 in/hr0.0 mm/hr 0.00 in0.0 mm
09:34 PM 63.3°F17.4°C 53.8°F12.1°C 71% 2.0 mph 3.2 kmh 9.4 mph15.1 kmh 30.12 in1020.0 mb 0.00 in0.0 mm 0.00 in/hr0.0 mm/hr 0.00 in0.0 mm
09:40 PM 63.3°F17.4°C 53.8°F12.1°C 71% 4.7 mph NNE7.6 kmh NNE 5.1 mph8.2 kmh 30.12 in1020.0 mb 0.00 in0.0 mm 0.00 in/hr0.0 mm/hr 0.00 in0.0 mm
09:45 PM 63.1°F17.3°C 53.6°F12.0°C 71% 4.7 mph 7.6 kmh 6.0 mph9.7 kmh 30.12 in1020.0 mb 0.00 in0.0 mm 0.00 in/hr0.0 mm/hr 0.00 in0.0 mm
09:50 PM 63.1°F17.3°C 53.6°F12.0°C 71% Calm Calm -- 30.12 in1020.0 mb 0.00 in0.0 mm 0.00 in/hr0.0 mm/hr 0.00 in0.0 mm
09:55 PM 63.0°F17.2°C 53.4°F11.9°C 71% 2.3 mph 3.7 kmh 5.5 mph8.9 kmh 30.12 in1020.0 mb 0.00 in0.0 mm 0.00 in/hr0.0 mm/hr 0.00 in0.0 mm
10:00 PM 63.0°F17.2°C 53.4°F11.9°C 71% 3.9 mph NNE6.3 kmh NNE 4.3 mph6.9 kmh 30.12 in1020.0 mb 0.00 in0.0 mm 0.00 in/hr0.0 mm/hr 0.00 in0.0 mm
10:05 PM 63.0°F17.2°C 53.4°F11.9°C 71% Calm Calm -- 30.12 in1020.0 mb 0.00 in0.0 mm 0.00 in/hr0.0 mm/hr 0.00 in0.0 mm
10:10 PM 63.0°F17.2°C 53.4°F11.9°C 71% Calm Calm 2.6 mph4.2 kmh 30.12 in1020.0 mb 0.00 in0.0 mm 0.00 in/hr0.0 mm/hr 0.00 in0.0 mm
10:14 PM 63.0°F17.2°C 53.4°F11.9°C 71% Calm Calm -- 30.12 in1020.0 mb 0.00 in0.0 mm 0.00 in/hr0.0 mm/hr 0.00 in0.0 mm
10:18 PM 63.0°F17.2°C 53.4°F11.9°C 71% Calm Calm 2.1 mph3.4 kmh 30.12 in1020.0 mb 0.00 in0.0 mm 0.00 in/hr0.0 mm/hr 0.00 in0.0 mm
10:25 PM 63.1°F17.3°C 53.6°F12.0°C 71% 3.5 mph NNE5.6 kmh NNE 4.7 mph7.6 kmh 30.12 in1020.0 mb 0.00 in0.0 mm 0.00 in/hr0.0 mm/hr 0.00 in0.0 mm
10:29 PM 63.1°F17.3°C 53.6°F12.0°C 71% 3.9 mph NNE6.3 kmh NNE 5.1 mph8.2 kmh 30.12 in1020.0 mb 0.00 in0.0 mm 0.00 in/hr0.0 mm/hr 0.00 in0.0 mm
10:35 PM 63.1°F17.3°C 53.6°F12.0°C 71% 2.7 mph NNE4.3 kmh NNE 3.8 mph6.1 kmh 30.12 in1020.0 mb 0.00 in0.0 mm 0.00 in/hr0.0 mm/hr 0.00 in0.0 mm
10:40 PM 63.3°F17.4°C 53.8°F12.1°C 71% Calm Calm -- 30.12 in1020.0 mb 0.00 in0.0 mm 0.00 in/hr0.0 mm/hr 0.00 in0.0 mm
10:45 PM 63.3°F17.4°C 53.8°F12.1°C 71% 2.7 mph NNE4.3 kmh NNE 3.0 mph4.8 kmh 30.12 in1020.0 mb 0.00 in0.0 mm 0.00 in/hr0.0 mm/hr 0.00 in0.0 mm
10:50 PM 63.5°F17.5°C 54.3°F12.4°C 72% 2.3 mph 3.7 kmh 5.1 mph8.2 kmh 30.12 in1020.0 mb 0.00 in0.0 mm 0.00 in/hr0.0 mm/hr 0.00 in0.0 mm
10:55 PM 63.5°F17.5°C 53.9°F12.2°C 71% Calm Calm -- 30.12 in1020.0 mb 0.00 in0.0 mm 0.00 in/hr0.0 mm/hr 0.00 in0.0 mm
11:00 PM 63.5°F17.5°C 53.9°F12.2°C 71% 3.9 mph NNE6.3 kmh NNE 8.1 mph13.0 kmh 30.12 in1020.0 mb 0.00 in0.0 mm 0.00 in/hr0.0 mm/hr 0.00 in0.0 mm
11:04 PM 63.7°F17.6°C 54.1°F12.3°C 71% 3.9 mph NNE6.3 kmh NNE 7.2 mph11.6 kmh 30.12 in1020.0 mb 0.00 in0.0 mm 0.00 in/hr0.0 mm/hr 0.00 in0.0 mm
11:09 PM 63.7°F17.6°C 54.1°F12.3°C 71% Calm Calm 2.1 mph3.4 kmh 30.12 in1020.0 mb 0.00 in0.0 mm 0.00 in/hr0.0 mm/hr 0.00 in0.0 mm
11:14 PM 63.9°F17.7°C 54.7°F12.6°C 72% Calm Calm -- 30.12 in1020.0 mb 0.00 in0.0 mm 0.00 in/hr0.0 mm/hr 0.00 in0.0 mm
11:19 PM 63.9°F17.7°C 54.7°F12.6°C 72% 5.1 mph NNE8.2 kmh NNE 5.5 mph8.9 kmh 30.12 in1020.0 mb 0.00 in0.0 mm 0.00 in/hr0.0 mm/hr 0.00 in0.0 mm
11:25 PM 63.9°F17.7°C 54.7°F12.6°C 72% Calm Calm -- 30.12 in1020.0 mb 0.00 in0.0 mm 0.00 in/hr0.0 mm/hr 0.00 in0.0 mm
11:29 PM 64.0°F17.8°C 54.5°F12.5°C 71% 6.3 mph NNE10.1 kmh NNE 6.8 mph10.9 kmh 30.12 in1020.0 mb 0.00 in0.0 mm 0.00 in/hr0.0 mm/hr 0.00 in0.0 mm
11:34 PM 64.0°F17.8°C 54.5°F12.5°C 71% 1.6 mph NNE2.6 kmh NNE 3.8 mph6.1 kmh 30.12 in1020.0 mb 0.00 in0.0 mm 0.00 in/hr0.0 mm/hr 0.00 in0.0 mm
11:39 PM 64.0°F17.8°C 54.5°F12.5°C 71% 5.1 mph NE8.2 kmh NE 5.5 mph8.9 kmh 30.12 in1020.0 mb 0.00 in0.0 mm 0.00 in/hr0.0 mm/hr 0.00 in0.0 mm
11:45 PM 64.2°F17.9°C 54.2°F12.3°C 70% Calm Calm 1.7 mph2.7 kmh 30.12 in1020.0 mb 0.00 in0.0 mm 0.00 in/hr0.0 mm/hr 0.00 in0.0 mm
11:50 PM 64.2°F17.9°C 54.2°F12.3°C 70% Calm Calm -- 30.12 in1020.0 mb 0.00 in0.0 mm 0.00 in/hr0.0 mm/hr 0.00 in0.0 mm
11:55 PM 64.2°F17.9°C 54.2°F12.3°C 70% Calm Calm -- 30.12 in1020.0 mb 0.00 in0.0 mm 0.00 in/hr0.0 mm/hr 0.00 in0.0 mm
11:59 PM 64.2°F17.9°C 54.2°F12.3°C 70% Calm Calm -- 30.12 in1020.0 mb 0.00 in0.0 mm 0.00 in/hr0.0 mm/hr 0.00 in0.0 mm